Time;durP1;ratioP1;P1;durP2;ratioP2;P2;SDS_P1;SDS_P2;PMS_P1;PMS_P2;Temp;Humidity;BMP_temperature;BMP_pressure;BME280_temperature;BME280_humidity;BME280_pressure;Samples;Min_cycle;Max_cycle;Signal;HPM_P1;HPM_P2
2024/02/04 00:01:32;;;;;;;69.70;35.80;;;2.20;99.90;;;;;;4229024;28;20272;-62
2024/02/04 00:03:33;;;;;;;63.43;34.77;;;2.20;99.90;;;;;;4230290;27;20321;-63
2024/02/04 00:05:34;;;;;;;66.47;35.90;;;2.20;99.90;;;;;;4228811;28;20272;-63
2024/02/04 00:07:35;;;;;;;75.80;38.03;;;2.20;99.90;;;;;;4229802;27;20264;-62
2024/02/04 00:09:36;;;;;;;71.77;37.03;;;2.20;99.90;;;;;;4228660;28;20313;-62
2024/02/04 00:11:37;;;;;;;69.43;36.63;;;2.10;99.90;;;;;;4229868;28;20286;-63
2024/02/04 00:13:39;;;;;;;77.20;38.27;;;2.10;99.90;;;;;;4228435;28;20256;-63
2024/02/04 00:15:40;;;;;;;75.47;39.93;;;2.10;99.90;;;;;;4229677;28;20309;-63
2024/02/04 00:17:41;;;;;;;64.67;33.93;;;2.20;99.90;;;;;;4227540;27;20325;-63
2024/02/04 00:19:42;;;;;;;73.50;37.67;;;2.20;99.90;;;;;;4229083;28;20326;-62
2024/02/04 00:21:43;;;;;;;80.23;40.63;;;2.10;99.90;;;;;;4228492;28;20288;-62
2024/02/04 00:23:45;;;;;;;73.23;39.70;;;2.10;99.90;;;;;;4229166;27;20686;-62
2024/02/04 00:25:46;;;;;;;75.77;38.90;;;2.00;99.90;;;;;;4227925;28;20756;-63
2024/02/04 00:27:47;;;;;;;77.63;38.07;;;2.00;99.90;;;;;;4228016;28;20280;-63
2024/02/04 00:29:48;;;;;;;78.47;40.33;;;1.90;99.90;;;;;;4212628;28;20265;-62
2024/02/04 00:31:49;;;;;;;78.27;39.00;;;1.90;99.90;;;;;;4211665;28;20646;-63
2024/02/04 00:33:50;;;;;;;74.27;38.93;;;1.80;99.90;;;;;;4221709;28;20321;-62
2024/02/04 00:35:51;;;;;;;71.00;36.40;;;1.80;99.90;;;;;;4228546;27;20412;-60
2024/02/04 00:37:53;;;;;;;84.50;41.60;;;1.80;99.90;;;;;;4229490;28;20260;-62
2024/02/04 00:39:54;;;;;;;75.80;36.17;;;1.70;99.90;;;;;;4228017;28;20271;-62
2024/02/04 00:41:55;;;;;;;78.47;38.87;;;1.80;99.90;;;;;;4229007;28;20264;-63
2024/02/04 00:43:56;;;;;;;83.90;40.67;;;1.80;99.90;;;;;;4227722;28;20329;-63
2024/02/04 00:46:00;;;;;;;76.23;37.17;;;1.70;99.90;;;;;;4229061;28;20611;-63
2024/02/04 00:48:01;;;;;;;73.97;39.03;;;1.60;99.90;;;;;;4228319;28;20819;-63
2024/02/04 00:50:02;;;;;;;83.03;40.93;;;1.60;99.90;;;;;;4228931;27;20325;-64
2024/02/04 00:52:04;;;;;;;77.87;39.77;;;1.60;99.90;;;;;;4228543;28;20391;-62
2024/02/04 00:54:05;;;;;;;74.63;40.00;;;1.60;99.90;;;;;;4227339;28;20276;-62
2024/02/04 00:56:06;;;;;;;77.13;39.10;;;1.60;99.90;;;;;;4223210;28;20260;-62
2024/02/04 00:58:08;;;;;;;80.23;41.57;;;1.60;99.90;;;;;;4211057;28;20663;-63
2024/02/04 01:00:09;;;;;;;84.00;41.00;;;1.60;99.90;;;;;;4212017;28;20318;-62
2024/02/04 01:02:11;;;;;;;69.40;37.10;;;1.60;99.90;;;;;;4210975;28;20594;-62
2024/02/04 01:04:12;;;;;;;82.73;38.93;;;1.60;99.90;;;;;;4212336;28;20606;-62
2024/02/04 01:06:13;;;;;;;74.47;38.30;;;1.50;99.90;;;;;;4210918;28;20257;-63
2024/02/04 01:08:14;;;;;;;76.83;38.40;;;1.60;99.90;;;;;;4212226;28;20675;-63
2024/02/04 01:10:16;;;;;;;77.90;39.47;;;1.60;99.90;;;;;;4210970;28;20261;-61
2024/02/04 01:12:17;;;;;;;79.50;40.17;;;1.60;99.90;;;;;;4219120;28;20287;-62
2024/02/04 01:14:18;;;;;;;76.87;38.47;;;1.60;99.90;;;;;;4227879;28;20276;-62
2024/02/04 01:16:19;;;;;;;75.13;38.33;;;1.60;99.90;;;;;;4228948;28;20626;-63
2024/02/04 01:18:21;;;;;;;79.80;38.70;;;1.60;99.90;;;;;;4227590;28;20260;-62
2024/02/04 01:20:22;;;;;;;76.07;38.77;;;1.50;99.90;;;;;;4227746;28;20267;-62
2024/02/04 01:22:26;;;;;;;75.13;40.10;;;1.50;99.90;;;;;;4227535;28;20292;-63
2024/02/04 01:24:27;;;;;;;70.57;39.20;;;1.50;99.90;;;;;;4227236;28;20321;-63
2024/02/04 01:26:28;;;;;;;74.90;38.57;;;1.50;99.90;;;;;;4226911;27;20321;-62
2024/02/04 01:28:29;;;;;;;78.60;40.73;;;1.50;99.90;;;;;;4227116;28;20367;-63
2024/02/04 01:30:31;;;;;;;83.77;40.10;;;1.40;99.90;;;;;;4228069;28;20257;-62
2024/02/04 01:32:32;;;;;;;74.10;38.47;;;1.40;99.90;;;;;;4227296;27;20345;-63
2024/02/04 01:34:33;;;;;;;82.50;41.27;;;1.30;99.90;;;;;;4228428;28;20759;-62
2024/02/04 01:36:36;;;;;;;74.87;38.67;;;1.30;99.90;;;;;;4227223;28;20763;-62
2024/02/04 01:38:37;;;;;;;80.27;38.60;;;1.30;99.90;;;;;;4228349;27;20280;-63
2024/02/04 01:40:38;;;;;;;83.70;40.70;;;1.20;99.90;;;;;;4226916;28;20324;-63
2024/02/04 01:42:39;;;;;;;82.30;41.27;;;1.20;99.90;;;;;;4228084;28;20264;-63
2024/02/04 01:44:41;;;;;;;74.57;40.47;;;1.20;99.90;;;;;;4226750;28;20953;-63
2024/02/04 01:46:44;;;;;;;75.93;39.00;;;1.20;99.90;;;;;;4227246;27;20305;-62
2024/02/04 01:48:45;;;;;;;81.17;37.40;;;1.20;99.90;;;;;;4227139;28;20321;-62
2024/02/04 01:50:49;;;;;;;79.53;41.13;;;1.20;99.90;;;;;;4228716;27;20345;-62
2024/02/04 01:52:51;;;;;;;85.53;41.63;;;1.20;99.90;;;;;;4227578;28;20337;-62
2024/02/04 01:54:53;;;;;;;80.43;39.70;;;1.20;99.90;;;;;;4227453;28;20276;-63
2024/02/04 01:56:55;;;;;;;78.67;40.57;;;1.10;99.90;;;;;;4227442;28;20260;-62
2024/02/04 01:58:59;;;;;;;79.27;39.87;;;1.10;99.90;;;;;;4228222;28;20264;-63
2024/02/04 02:01:01;;;;;;;84.37;42.87;;;1.20;99.90;;;;;;4227712;28;20668;-62
2024/02/04 02:03:06;;;;;;;86.13;43.27;;;1.20;99.90;;;;;;4227576;27;20275;-63
2024/02/04 02:05:09;;;;;;;82.63;40.47;;;1.10;99.90;;;;;;4228064;27;20623;-62
2024/02/04 02:07:10;;;;;;;84.60;41.17;;;1.10;99.90;;;;;;4227332;28;20318;-63
2024/02/04 02:09:12;;;;;;;88.03;43.03;;;1.10;99.90;;;;;;4228473;28;20264;-63
2024/02/04 02:11:27;;;;;;;86.00;41.07;;;1.10;99.90;;;;;;4226906;28;20341;-63
2024/02/04 02:13:32;;;;;;;80.40;40.07;;;1.10;99.90;;;;;;4228156;28;20304;-62
2024/02/04 02:15:40;;;;;;;92.50;43.10;;;1.10;99.90;;;;;;4227251;28;20276;-62
2024/02/04 02:17:49;;;;;;;90.07;39.77;;;1.10;99.90;;;;;;4228527;28;21144;-63
2024/02/04 02:20:03;;;;;;;92.93;40.97;;;1.00;99.90;;;;;;4227086;28;20321;-63
2024/02/04 02:22:47;;;;;;;82.77;41.10;;;1.00;99.90;;;;;;4227818;28;20393;-63
2024/02/04 02:24:51;;;;;;;73.50;36.40;;;1.00;99.90;;;;;;4222325;28;20666;-63
2024/02/04 02:26:53;;;;;;;88.53;41.40;;;0.90;99.90;;;;;;4227639;28;20260;-63
2024/02/04 02:28:54;;;;;;;85.83;39.23;;;0.90;99.90;;;;;;4227324;28;20259;-63
2024/02/04 02:30:55;;;;;;;85.63;42.53;;;0.80;99.90;;;;;;4228869;28;20321;-63
2024/02/04 02:32:57;;;;;;;82.87;40.03;;;0.80;99.90;;;;;;4230774;27;20767;-62
2024/02/04 02:34:58;;;;;;;87.07;41.57;;;0.80;99.90;;;;;;4231490;28;20309;-62
2024/02/04 02:37:04;;;;;;;88.27;41.43;;;0.80;99.90;;;;;;4230592;27;20272;-62
2024/02/04 02:39:14;;;;;;;86.53;42.03;;;0.80;99.90;;;;;;4231255;28;20252;-63
2024/02/04 02:41:17;;;;;;;95.50;43.03;;;0.80;99.90;;;;;;4230487;27;20333;-63
2024/02/04 02:43:19;;;;;;;92.40;41.63;;;0.80;99.90;;;;;;4229517;28;20469;-62
2024/02/04 02:45:22;;;;;;;89.27;38.93;;;0.80;99.90;;;;;;4230057;27;20256;-63
2024/02/04 02:47:24;;;;;;;89.87;38.30;;;0.80;99.90;;;;;;4231336;28;20256;-63
2024/02/04 02:49:26;;;;;;;100.07;39.53;;;0.70;99.90;;;;;;4230098;28;20812;-62
2024/02/04 02:51:27;;;;;;;106.67;40.17;;;0.70;99.90;;;;;;4213239;28;20269;-64
2024/02/04 02:53:28;;;;;;;230.90;45.77;;;0.70;99.90;;;;;;4229824;28;20764;-62
2024/02/04 02:55:29;;;;;;;114.80;39.73;;;0.60;99.90;;;;;;4230589;27;20787;-63
2024/02/04 02:57:30;;;;;;;100.07;35.37;;;0.50;99.90;;;;;;4230425;27;20256;-62
2024/02/04 02:59:32;;;;;;;95.63;35.77;;;0.40;99.90;;;;;;4230928;28;20252;-62
2024/02/04 03:01:33;;;;;;;91.70;34.30;;;0.30;99.90;;;;;;4228939;28;20264;-62
2024/02/04 03:03:34;;;;;;;84.47;33.57;;;0.20;99.90;;;;;;4230473;28;20275;-62
2024/02/04 03:05:35;;;;;;;96.27;36.67;;;0.20;99.90;;;;;;4230523;28;20348;-63
2024/02/04 03:07:36;;;;;;;101.37;37.23;;;0.20;99.90;;;;;;4230105;28;20308;-63
2024/02/04 03:09:38;;;;;;;93.50;35.97;;;0.20;99.90;;;;;;4230783;28;20264;-62
2024/02/04 03:11:39;;;;;;;149.50;37.03;;;0.20;99.90;;;;;;4229850;28;21178;-62
2024/02/04 03:13:40;;;;;;;170.87;41.13;;;0.20;99.90;;;;;;4230749;28;20299;-63
2024/02/04 03:15:42;;;;;;;147.43;35.83;;;0.10;99.90;;;;;;4229744;28;20256;-62
2024/02/04 03:17:44;;;;;;;184.00;38.87;;;0.00;99.90;;;;;;4231128;27;20321;-63
2024/02/04 03:19:47;;;;;;;245.43;42.67;;;0.00;99.90;;;;;;4229661;28;20309;-62
2024/02/04 03:21:48;;;;;;;149.87;39.07;;;-0.10;99.90;;;;;;4230657;28;20760;-62
2024/02/04 03:23:49;;;;;;;123.33;38.20;;;-0.10;99.90;;;;;;4229903;27;20272;-62
2024/02/04 03:25:50;;;;;;;157.53;37.97;;;-0.10;99.90;;;;;;4231216;28;20332;-63
2024/02/04 03:27:52;;;;;;;209.97;42.07;;;-0.20;99.90;;;;;;4229305;28;20268;-62
2024/02/04 03:29:53;;;;;;;181.83;39.00;;;-0.10;99.90;;;;;;4230908;27;20272;-63
2024/02/04 03:31:56;;;;;;;198.63;38.50;;;-0.20;99.90;;;;;;4229356;27;20302;-63
2024/02/04 03:33:57;;;;;;;187.80;41.47;;;-0.20;99.90;;;;;;4230428;28;20299;-63
2024/02/04 03:35:58;;;;;;;326.93;44.00;;;-0.20;99.90;;;;;;4228865;28;20776;-63
2024/02/04 03:37:59;;;;;;;197.03;38.57;;;-0.20;99.90;;;;;;4229933;28;20276;-63
2024/02/04 03:40:01;;;;;;;363.60;46.57;;;-0.30;99.90;;;;;;4229924;28;20663;-63
2024/02/04 03:42:02;;;;;;;227.93;39.30;;;-0.30;99.90;;;;;;4229002;27;20276;-63
2024/02/04 03:44:03;;;;;;;183.53;40.23;;;-0.30;99.90;;;;;;4229605;28;20268;-62
2024/02/04 03:46:04;;;;;;;330.77;47.20;;;-0.30;99.90;;;;;;4229261;27;20328;-63
2024/02/04 03:48:06;;;;;;;139.23;35.50;;;-0.30;99.90;;;;;;4230313;28;20311;-63
2024/02/04 03:50:08;;;;;;;188.80;36.87;;;-0.20;99.90;;;;;;4229325;28;20313;-64
2024/02/04 03:52:09;;;;;;;232.77;40.63;;;-0.20;99.90;;;;;;4230099;28;20271;-61
2024/02/04 03:54:10;;;;;;;188.87;38.93;;;-0.20;99.90;;;;;;4229012;28;20292;-62
2024/02/04 03:56:11;;;;;;;237.23;42.67;;;-0.20;99.90;;;;;;4230719;28;20268;-62
2024/02/04 03:58:12;;;;;;;126.50;35.97;;;-0.10;99.90;;;;;;4228691;28;20362;-63
2024/02/04 04:00:14;;;;;;;153.43;35.00;;;-0.20;99.90;;;;;;4230541;27;20678;-62
2024/02/04 04:02:15;;;;;;;207.20;39.23;;;-0.10;99.90;;;;;;4228494;27;20321;-62
2024/02/04 04:04:17;;;;;;;341.97;50.77;;;-0.10;99.90;;;;;;4228697;28;20293;-63
2024/02/04 04:06:18;;;;;;;246.90;39.73;;;-0.10;99.90;;;;;;4229106;28;20313;-62
2024/02/04 04:08:19;;;;;;;484.27;61.83;;;-0.20;99.90;;;;;;4228206;28;20352;-62
2024/02/04 04:10:21;;;;;;;397.23;51.90;;;-0.30;99.90;;;;;;4229561;28;20248;-61
2024/02/04 04:12:22;;;;;;;114.03;32.20;;;-0.30;99.90;;;;;;4227107;28;20631;-60
2024/02/04 04:14:23;;;;;;;216.73;36.47;;;-0.40;99.90;;;;;;4229780;28;20288;-62
2024/02/04 04:16:24;;;;;;;303.20;43.13;;;-0.40;99.90;;;;;;4229053;27;20264;-62
2024/02/04 04:18:25;;;;;;;244.60;36.13;;;-0.40;99.90;;;;;;4229662;28;20272;-63
2024/02/04 04:20:27;;;;;;;218.73;39.23;;;-0.40;99.90;;;;;;4227688;28;20267;-62
2024/02/04 04:22:28;;;;;;;217.40;40.03;;;-0.40;99.90;;;;;;4229809;28;20322;-62
2024/02/04 04:24:29;;;;;;;107.77;34.00;;;-0.40;99.90;;;;;;4228931;28;20302;-62
2024/02/04 04:26:31;;;;;;;217.97;39.10;;;-0.30;99.90;;;;;;4229150;28;20268;-59
2024/02/04 04:28:34;;;;;;;125.67;35.17;;;-0.30;99.90;;;;;;4228415;28;20617;-62
2024/02/04 04:30:35;;;;;;;170.83;34.07;;;-0.20;99.90;;;;;;4229582;27;20279;-65
2024/02/04 04:32:37;;;;;;;173.40;35.03;;;-0.20;99.90;;;;;;4227944;28;20276;-62
2024/02/04 04:34:38;;;;;;;341.17;42.93;;;-0.30;99.90;;;;;;4229136;28;20412;-61
2024/02/04 04:36:39;;;;;;;287.53;42.87;;;-0.20;99.90;;;;;;4228898;27;20268;-62
2024/02/04 04:38:40;;;;;;;205.53;37.37;;;-0.20;99.90;;;;;;4229221;28;20647;-61
2024/02/04 04:40:41;;;;;;;276.70;39.07;;;-0.20;99.90;;;;;;4228524;28;20272;-62
2024/02/04 04:42:43;;;;;;;224.87;36.73;;;-0.20;99.90;;;;;;4228611;28;20313;-62
2024/02/04 04:44:44;;;;;;;197.23;36.03;;;-0.20;99.90;;;;;;4227437;28;20293;-62
2024/02/04 04:46:45;;;;;;;380.13;45.07;;;-0.20;99.90;;;;;;4228089;28;20260;-62
2024/02/04 04:48:46;;;;;;;263.10;39.27;;;-0.30;99.90;;;;;;4229465;27;20337;-63
2024/02/04 04:50:47;;;;;;;119.37;33.47;;;-0.30;99.90;;;;;;4227953;28;20280;-62
2024/02/04 04:52:49;;;;;;;120.43;32.03;;;-0.30;99.90;;;;;;4229271;28;20328;-61
2024/02/04 04:54:50;;;;;;;128.90;31.23;;;-0.30;99.90;;;;;;4227256;27;20391;-61
2024/02/04 04:56:51;;;;;;;188.27;36.43;;;-0.20;99.90;;;;;;4228561;28;20336;-62
2024/02/04 04:58:53;;;;;;;183.73;36.43;;;-0.20;99.90;;;;;;4227448;28;20317;-61
2024/02/04 05:00:54;;;;;;;207.97;38.70;;;-0.20;99.90;;;;;;4227606;27;20276;-62
2024/02/04 05:02:55;;;;;;;236.33;38.40;;;-0.20;99.90;;;;;;4227377;28;20264;-61
2024/02/04 05:04:56;;;;;;;195.83;37.20;;;-0.20;99.90;;;;;;4229362;27;20682;-62
2024/02/04 05:06:57;;;;;;;276.57;41.27;;;-0.20;99.90;;;;;;4227852;28;20255;-63
2024/02/04 05:08:59;;;;;;;223.37;36.63;;;-0.20;99.90;;;;;;4228712;28;21795;-62
2024/02/04 05:11:00;;;;;;;181.60;36.70;;;-0.20;99.90;;;;;;4228344;28;20285;-62
2024/02/04 05:13:01;;;;;;;128.53;35.30;;;-0.20;99.90;;;;;;4228158;28;20272;-62
2024/02/04 05:15:04;;;;;;;181.00;36.47;;;-0.20;99.90;;;;;;4227052;28;20389;-61
2024/02/04 05:17:05;;;;;;;180.87;37.27;;;-0.20;99.90;;;;;;4227890;28;20276;-62
2024/02/04 05:19:07;;;;;;;140.93;36.97;;;-0.20;99.90;;;;;;4227507;28;20252;-63
2024/02/04 05:21:08;;;;;;;136.23;36.97;;;-0.20;99.90;;;;;;4227461;28;20252;-62
2024/02/04 05:23:09;;;;;;;96.80;35.20;;;-0.10;99.90;;;;;;4228546;28;20280;-61
2024/02/04 05:25:10;;;;;;;216.83;44.27;;;-0.10;99.90;;;;;;4227512;28;20264;-62
2024/02/04 05:27:12;;;;;;;178.87;37.90;;;-0.10;99.90;;;;;;4228924;27;20259;-62
2024/02/04 05:29:13;;;;;;;217.47;35.03;;;-0.10;99.90;;;;;;4227281;28;20724;-61
2024/02/04 05:31:14;;;;;;;193.93;36.83;;;-0.10;99.90;;;;;;4228311;28;20735;-61
2024/02/04 05:33:15;;;;;;;88.23;34.10;;;-0.10;99.90;;;;;;4226949;28;20303;-62
2024/02/04 05:35:16;;;;;;;193.23;39.97;;;-0.10;99.90;;;;;;4228617;28;20268;-62
2024/02/04 05:37:18;;;;;;;114.27;36.83;;;0.00;99.90;;;;;;4227812;27;20268;-63
2024/02/04 05:39:19;;;;;;;159.33;38.13;;;0.00;99.90;;;;;;4228530;28;20264;-63
2024/02/04 05:41:20;;;;;;;99.77;35.33;;;0.00;99.90;;;;;;4211048;28;20318;-63
2024/02/04 05:43:21;;;;;;;183.57;36.33;;;0.00;99.90;;;;;;4217844;28;20317;-62
2024/02/04 05:45:23;;;;;;;105.63;34.90;;;0.00;99.90;;;;;;4227992;27;20272;-62
2024/02/04 05:47:24;;;;;;;124.53;36.67;;;0.00;99.90;;;;;;4227759;28;20325;-64
2024/02/04 05:49:25;;;;;;;139.63;35.43;;;0.00;99.90;;;;;;4228037;28;20733;-63
2024/02/04 05:51:27;;;;;;;92.30;38.50;;;0.00;99.90;;;;;;4227622;27;20328;-62
2024/02/04 05:53:28;;;;;;;133.50;39.00;;;0.00;99.90;;;;;;4228299;28;20288;-63
2024/02/04 05:55:29;;;;;;;112.97;38.77;;;0.00;99.90;;;;;;4227586;28;20313;-63
2024/02/04 05:57:31;;;;;;;95.83;35.83;;;0.00;99.90;;;;;;4228555;28;20666;-61
2024/02/04 05:59:33;;;;;;;120.83;37.50;;;0.10;99.90;;;;;;4227327;28;20272;-62
2024/02/04 06:01:34;;;;;;;108.07;37.93;;;0.10;99.90;;;;;;4227385;28;20248;-63
2024/02/04 06:03:35;;;;;;;92.20;37.17;;;0.10;99.90;;;;;;4226485;28;20325;-62
2024/02/04 06:05:36;;;;;;;96.10;41.33;;;0.10;99.90;;;;;;4228297;28;20260;-63
2024/02/04 06:07:37;;;;;;;102.03;43.43;;;0.10;99.90;;;;;;4226861;28;20321;-62
2024/02/04 06:09:39;;;;;;;96.67;41.10;;;0.10;99.90;;;;;;4228224;28;20260;-63
2024/02/04 06:11:40;;;;;;;82.17;36.33;;;0.10;99.90;;;;;;4226982;28;20697;-63
2024/02/04 06:13:43;;;;;;;73.60;34.23;;;0.10;99.90;;;;;;4227759;28;20317;-63
2024/02/04 06:15:44;;;;;;;81.73;35.90;;;0.10;99.90;;;;;;4227195;28;20272;-63
2024/02/04 06:17:45;;;;;;;75.40;35.00;;;0.20;99.90;;;;;;4227615;28;20279;-63
2024/02/04 06:19:46;;;;;;;81.77;36.70;;;0.30;99.90;;;;;;4227592;28;20256;-63
2024/02/04 06:21:48;;;;;;;89.90;38.97;;;0.30;99.90;;;;;;4227076;28;20321;-63
2024/02/04 06:23:49;;;;;;;91.60;39.57;;;0.30;99.90;;;;;;4227790;28;20280;-62
2024/02/04 06:25:50;;;;;;;110.73;49.37;;;0.30;99.90;;;;;;4227371;28;20324;-63
2024/02/04 06:27:51;;;;;;;103.30;46.43;;;0.40;99.90;;;;;;4227399;28;20276;-63
2024/02/04 06:29:52;;;;;;;124.13;51.67;;;0.40;99.90;;;;;;4226543;28;20268;-63
2024/02/04 06:31:54;;;;;;;114.47;50.70;;;0.50;99.90;;;;;;4228017;28;20317;-62
2024/02/04 06:33:55;;;;;;;120.27;52.87;;;0.50;99.90;;;;;;4226386;28;20300;-62
2024/02/04 06:35:56;;;;;;;112.17;49.87;;;0.60;99.90;;;;;;4227936;28;20305;-64
2024/02/04 06:37:57;;;;;;;105.47;45.80;;;0.70;99.90;;;;;;4226584;28;20268;-61
2024/02/04 06:39:58;;;;;;;108.37;46.13;;;0.70;99.90;;;;;;4227668;28;20373;-62
2024/02/04 06:42:00;;;;;;;99.60;45.47;;;0.70;99.90;;;;;;4225043;28;20341;-62
2024/02/04 06:44:05;;;;;;;101.90;45.60;;;0.80;99.90;;;;;;4227194;28;20301;-62
2024/02/04 06:46:06;;;;;;;98.73;45.20;;;0.80;99.90;;;;;;4226956;28;20259;-63
2024/02/04 06:48:08;;;;;;;98.07;44.63;;;0.80;99.90;;;;;;4221990;28;20333;-64
2024/02/04 06:50:13;;;;;;;106.83;47.63;;;0.90;99.90;;;;;;4226854;28;20260;-61
2024/02/04 06:52:14;;;;;;;100.87;45.37;;;0.90;99.90;;;;;;4226904;28;20272;-62
2024/02/04 06:54:16;;;;;;;107.53;47.40;;;0.90;99.90;;;;;;4227271;28;20337;-62
2024/02/04 06:56:17;;;;;;;102.40;46.67;;;0.90;99.90;;;;;;4227424;28;20309;-64
2024/02/04 06:58:18;;;;;;;97.47;42.90;;;1.00;99.90;;;;;;4227521;28;20317;-61
2024/02/04 07:00:21;;;;;;;102.17;42.57;;;0.90;99.90;;;;;;4226676;28;20273;-60
2024/02/04 07:02:22;;;;;;;84.20;37.70;;;0.70;99.90;;;;;;4226824;28;20329;-61
2024/02/04 07:04:24;;;;;;;81.30;37.33;;;0.60;99.90;;;;;;4225931;28;20252;-63
2024/02/04 07:06:25;;;;;;;72.30;36.73;;;0.60;99.90;;;;;;4227140;28;20747;-61
2024/02/04 07:08:27;;;;;;;74.93;37.33;;;0.50;99.90;;;;;;4224861;28;20333;-62
2024/02/04 07:10:28;;;;;;;71.30;34.80;;;0.50;99.90;;;;;;4227415;28;20751;-62
2024/02/04 07:12:29;;;;;;;71.07;34.37;;;0.50;99.90;;;;;;4226003;28;20762;-61
2024/02/04 07:14:30;;;;;;;76.37;34.90;;;0.50;99.90;;;;;;4227643;28;20723;-62
2024/02/04 07:16:31;;;;;;;69.87;32.57;;;0.50;99.90;;;;;;4226520;28;20762;-62
2024/02/04 07:18:32;;;;;;;73.23;35.03;;;0.50;99.90;;;;;;4227485;28;20329;-62
2024/02/04 07:20:34;;;;;;;75.80;37.53;;;0.50;99.90;;;;;;4228292;28;20347;-62
2024/02/04 07:22:35;;;;;;;77.73;36.43;;;0.60;99.90;;;;;;4229657;28;20272;-60
2024/02/04 07:24:36;;;;;;;77.00;37.23;;;0.60;99.90;;;;;;4229149;28;20341;-61
2024/02/04 07:26:38;;;;;;;73.90;36.17;;;0.70;99.90;;;;;;4230752;27;20361;-65
2024/02/04 07:28:39;;;;;;;77.63;37.50;;;0.80;99.90;;;;;;4230111;28;20310;-63
2024/02/04 07:30:40;;;;;;;81.03;38.03;;;0.90;99.90;;;;;;4227624;28;20264;-60
2024/02/04 07:32:41;;;;;;;80.40;38.67;;;1.00;99.90;;;;;;4230279;28;20272;-62
2024/02/04 07:34:42;;;;;;;90.33;39.60;;;1.00;99.90;;;;;;4229200;28;20300;-61
2024/02/04 07:36:45;;;;;;;82.10;37.63;;;1.00;99.90;;;;;;4229977;27;20828;-61
2024/02/04 07:38:46;;;;;;;80.43;39.23;;;1.00;99.90;;;;;;4229050;27;20280;-62
2024/02/04 07:40:47;;;;;;;94.27;42.60;;;1.10;99.90;;;;;;4230268;28;20328;-57
2024/02/04 07:42:48;;;;;;;94.17;43.90;;;1.10;99.90;;;;;;4228587;28;20743;-60
2024/02/04 07:44:49;;;;;;;81.93;41.60;;;1.10;99.90;;;;;;4228147;28;20276;-60
2024/02/04 07:46:51;;;;;;;87.90;39.73;;;1.10;99.90;;;;;;4229372;27;20310;-59
2024/02/04 07:48:52;;;;;;;86.30;41.07;;;1.20;99.90;;;;;;4230324;28;20789;-64
2024/02/04 07:50:53;;;;;;;83.20;40.97;;;1.20;99.90;;;;;;4228989;28;20328;-62
2024/02/04 07:52:54;;;;;;;91.23;43.10;;;1.20;99.90;;;;;;4229671;28;20260;-61
2024/02/04 07:54:55;;;;;;;83.10;40.30;;;1.20;99.90;;;;;;4229315;28;20303;-63
2024/02/04 07:56:57;;;;;;;92.23;45.30;;;1.60;99.90;;;;;;4229542;28;20264;-64
2024/02/04 07:58:58;;;;;;;80.63;41.97;;;1.70;99.90;;;;;;4229736;27;20301;-62
2024/02/04 08:00:59;;;;;;;79.17;40.60;;;1.80;99.90;;;;;;4228437;28;20329;-62
2024/02/04 08:03:00;;;;;;;82.77;41.60;;;1.80;99.90;;;;;;4229834;28;20272;-61
2024/02/04 08:05:01;;;;;;;75.13;39.50;;;1.90;99.90;;;;;;4228828;28;20317;-62
2024/02/04 08:07:03;;;;;;;83.53;41.47;;;2.00;99.90;;;;;;4224916;28;20732;-61
2024/02/04 08:09:04;;;;;;;83.20;40.43;;;2.00;99.90;;;;;;4216308;28;20276;-61
2024/02/04 08:11:06;;;;;;;74.93;39.73;;;2.10;99.90;;;;;;4230181;27;20769;-62
2024/02/04 08:13:07;;;;;;;73.03;37.23;;;2.20;99.90;;;;;;4229511;27;20302;-62
2024/02/04 08:15:09;;;;;;;70.90;37.27;;;2.40;99.90;;;;;;4229595;28;20292;-60
2024/02/04 08:17:10;;;;;;;75.10;37.63;;;2.80;99.90;;;;;;4229018;28;20280;-58
2024/02/04 08:19:11;;;;;;;63.00;35.33;;;3.20;99.90;;;;;;4230086;27;20302;-63
2024/02/04 08:21:12;;;;;;;67.67;35.53;;;3.50;99.90;;;;;;4228318;28;20272;-63
2024/02/04 08:23:14;;;;;;;62.23;35.83;;;4.20;99.90;;;;;;4228997;28;20291;-61
2024/02/04 08:25:15;;;;;;;59.53;32.97;;;4.80;99.90;;;;;;4228829;28;20317;-59
2024/02/04 08:27:17;;;;;;;53.03;30.57;;;5.00;99.90;;;;;;4229369;28;20271;-60
2024/02/04 08:29:19;;;;;;;55.93;30.00;;;5.20;99.90;;;;;;4227461;27;20365;-60
2024/02/04 08:31:21;;;;;;;48.17;29.87;;;5.60;99.90;;;;;;4228729;28;20682;-60
2024/02/04 08:33:22;;;;;;;46.87;28.83;;;5.70;99.90;;;;;;4229275;28;20272;-58
2024/02/04 08:35:23;;;;;;;47.70;26.73;;;5.80;99.90;;;;;;4228562;27;20361;-62
2024/02/04 08:37:24;;;;;;;42.93;25.50;;;5.80;99.90;;;;;;4228849;28;20252;-59
2024/02/04 08:39:26;;;;;;;45.20;26.30;;;6.00;99.90;;;;;;4228338;27;20260;-61
2024/02/04 08:41:27;;;;;;;40.87;25.40;;;6.30;99.90;;;;;;4229366;28;20035;-57
2024/02/04 08:43:28;;;;;;;39.37;23.87;;;6.40;99.90;;;;;;4227752;27;20035;-62
2024/02/04 08:45:30;;;;;;;41.57;24.83;;;6.40;99.90;;;;;;4228962;28;20450;-60
2024/02/04 08:47:31;;;;;;;44.33;26.80;;;6.50;99.90;;;;;;4228406;27;20373;-60
2024/02/04 08:49:32;;;;;;;43.23;26.40;;;6.30;99.90;;;;;;4229312;28;20108;-58
2024/02/04 08:51:33;;;;;;;50.77;30.23;;;6.00;99.90;;;;;;4227524;27;20047;-62
2024/02/04 08:53:34;;;;;;;47.40;29.63;;;6.00;99.90;;;;;;4228909;28;20421;-60
2024/02/04 08:55:35;;;;;;;53.77;31.97;;;5.80;99.90;;;;;;4223124;27;20392;-59
2024/02/04 08:57:37;;;;;;;48.30;30.47;;;5.60;99.90;;;;;;4222089;28;20372;-60
2024/02/04 08:59:38;;;;;;;53.60;30.17;;;5.60;99.90;;;;;;4223595;28;20081;-62
2024/02/04 09:01:39;;;;;;;51.03;29.70;;;5.70;99.90;;;;;;4219117;28;20074;-64
2024/02/04 09:03:40;;;;;;;47.53;29.13;;;5.70;99.90;;;;;;4211722;28;20028;-61
2024/02/04 09:05:41;;;;;;;48.80;29.13;;;5.60;99.90;;;;;;4210870;28;20082;-60
2024/02/04 09:07:43;;;;;;;49.40;30.07;;;5.60;99.90;;;;;;4212218;28;20430;-61
2024/02/04 09:09:44;;;;;;;50.40;30.30;;;5.60;99.90;;;;;;4211091;28;20050;-61
2024/02/04 09:11:45;;;;;;;48.10;28.07;;;6.20;99.90;;;;;;4212281;28;20490;-62
2024/02/04 09:13:46;;;;;;;45.03;26.87;;;6.60;99.90;;;;;;4225341;28;20031;-58
2024/02/04 09:15:48;;;;;;;42.63;24.70;;;6.90;99.90;;;;;;4228731;28;20100;-60
2024/02/04 09:17:49;;;;;;;31.83;20.60;;;7.10;99.90;;;;;;4227766;28;20089;-60
2024/02/04 09:19:50;;;;;;;34.63;21.33;;;7.30;99.90;;;;;;4228405;28;20035;-61
2024/02/04 09:21:51;;;;;;;33.67;19.30;;;7.70;99.90;;;;;;4226990;28;20047;-60
2024/02/04 09:23:53;;;;;;;32.33;19.40;;;8.10;99.90;;;;;;4228743;28;20043;-61
2024/02/04 09:25:54;;;;;;;30.43;16.73;;;8.10;99.90;;;;;;4227984;28;20043;-59
2024/02/04 09:27:55;;;;;;;33.13;17.53;;;8.20;99.90;;;;;;4228380;28;20039;-60
2024/02/04 09:29:58;;;;;;;27.50;17.50;;;8.40;99.90;;;;;;4227501;28;20035;-60
2024/02/04 09:31:59;;;;;;;24.90;15.13;;;8.70;99.90;;;;;;4228473;28;20422;-61
2024/02/04 09:34:00;;;;;;;13.07;8.83;;;9.10;99.90;;;;;;4227546;28;20023;-62
2024/02/04 09:36:03;;;;;;;8.80;5.23;;;9.20;99.90;;;;;;4227096;28;20069;-61
2024/02/04 09:38:04;;;;;;;3.80;2.27;;;9.50;99.90;;;;;;4228022;28;20429;-60
2024/02/04 09:40:05;;;;;;;1.23;1.13;;;9.80;99.90;;;;;;4226445;28;20035;-61
2024/02/04 09:42:07;;;;;;;2.37;0.87;;;10.10;99.90;;;;;;4227663;28;20027;-61
2024/02/04 09:44:08;;;;;;;1.23;0.80;;;10.30;99.90;;;;;;4226583;28;20568;-60
2024/02/04 09:46:09;;;;;;;1.10;0.80;;;10.50;99.90;;;;;;4228291;28;20032;-59
2024/02/04 09:48:11;;;;;;;1.30;1.00;;;10.80;99.90;;;;;;4227244;28;20048;-60
2024/02/04 09:50:13;;;;;;;1.53;0.87;;;10.90;99.90;;;;;;4227856;28;20031;-61
2024/02/04 09:52:18;;;;;;;1.63;0.70;;;10.90;99.90;;;;;;4227094;28;20494;-60
2024/02/04 09:54:22;;;;;;;0.60;0.60;;;10.90;99.90;;;;;;4228251;28;20143;-61
2024/02/04 09:56:25;;;;;;;2.47;1.00;;;11.00;99.90;;;;;;4227553;28;20073;-64
2024/02/04 09:58:27;;;;;;;1.67;1.00;;;11.10;99.90;;;;;;4228208;28;20065;-62
2024/02/04 10:00:30;;;;;;;1.53;1.23;;;11.10;99.90;;;;;;4226389;28;20081;-61
2024/02/04 10:02:34;;;;;;;1.27;1.10;;;11.10;99.90;;;;;;4228226;28;20072;-61
2024/02/04 10:04:35;;;;;;;1.23;0.50;;;11.20;99.90;;;;;;4225844;28;20556;-62
2024/02/04 10:06:36;;;;;;;4.13;1.10;;;11.10;99.90;;;;;;4226834;28;20391;-61
2024/02/04 10:08:38;;;;;;;16.40;5.67;;;11.10;99.90;;;;;;4226885;28;20028;-60
2024/02/04 10:10:39;;;;;;;2.50;0.50;;;11.10;99.90;;;;;;4227662;28;20570;-61
2024/02/04 10:12:42;;;;;;;2.63;0.90;;;11.00;99.90;;;;;;4227212;28;20032;-61
2024/02/04 10:14:43;;;;;;;1.00;0.90;;;11.10;99.90;;;;;;4226609;28;20063;-59
2024/02/04 10:16:45;;;;;;;1.00;0.70;;;11.00;99.90;;;;;;4227446;28;20031;-61
2024/02/04 10:18:49;;;;;;;2.03;0.83;;;11.10;99.90;;;;;;4226181;28;20077;-62
2024/02/04 10:20:50;;;;;;;3.77;0.80;;;11.10;99.90;;;;;;4227182;28;20065;-62
2024/02/04 10:22:51;;;;;;;1.17;0.70;;;11.20;99.90;;;;;;4226482;28;20089;-62